sensor_id;sensor_type;location;lat;lon;timestamp;temperature;humidity
17813;DHT22;9030;50.792;8.320;2023-12-07T00:00:58;1.60;99.90
17813;DHT22;9030;50.792;8.320;2023-12-07T00:03:46;1.60;99.90
17813;DHT22;9030;50.792;8.320;2023-12-07T00:06:22;1.50;99.90
17813;DHT22;9030;50.792;8.320;2023-12-07T00:08:52;1.60;99.90
17813;DHT22;9030;50.792;8.320;2023-12-07T00:11:19;1.60;99.90
17813;DHT22;9030;50.792;8.320;2023-12-07T00:13:47;1.60;99.90
17813;DHT22;9030;50.792;8.320;2023-12-07T00:16:14;1.50;99.90
17813;DHT22;9030;50.792;8.320;2023-12-07T00:18:41;1.50;99.90
17813;DHT22;9030;50.792;8.320;2023-12-07T00:21:08;1.60;99.90
17813;DHT22;9030;50.792;8.320;2023-12-07T00:23:35;1.70;99.90
17813;DHT22;9030;50.792;8.320;2023-12-07T00:26:03;1.70;99.90
17813;DHT22;9030;50.792;8.320;2023-12-07T00:28:30;1.70;99.90
17813;DHT22;9030;50.792;8.320;2023-12-07T00:30:58;1.70;99.90
17813;DHT22;9030;50.792;8.320;2023-12-07T00:33:25;1.70;99.90
17813;DHT22;9030;50.792;8.320;2023-12-07T00:35:51;1.70;99.90
17813;DHT22;9030;50.792;8.320;2023-12-07T00:38:18;1.60;99.90
17813;DHT22;9030;50.792;8.320;2023-12-07T00:40:46;1.60;99.90
17813;DHT22;9030;50.792;8.320;2023-12-07T00:43:13;1.60;99.90
17813;DHT22;9030;50.792;8.320;2023-12-07T00:45:39;1.60;99.90
17813;DHT22;9030;50.792;8.320;2023-12-07T00:48:07;1.70;99.90
17813;DHT22;9030;50.792;8.320;2023-12-07T00:50:34;1.70;99.90
17813;DHT22;9030;50.792;8.320;2023-12-07T00:53:01;1.70;99.90
17813;DHT22;9030;50.792;8.320;2023-12-07T00:55:28;1.60;99.90
17813;DHT22;9030;50.792;8.320;2023-12-07T00:57:54;1.60;99.90
17813;DHT22;9030;50.792;8.320;2023-12-07T01:00:21;1.50;99.90
17813;DHT22;9030;50.792;8.320;2023-12-07T01:02:48;1.50;99.90
17813;DHT22;9030;50.792;8.320;2023-12-07T01:05:16;1.50;99.90
17813;DHT22;9030;50.792;8.320;2023-12-07T01:07:43;1.50;99.90
17813;DHT22;9030;50.792;8.320;2023-12-07T01:10:09;1.50;99.90
17813;DHT22;9030;50.792;8.320;2023-12-07T01:12:36;1.40;99.90
17813;DHT22;9030;50.792;8.320;2023-12-07T01:15:03;1.40;99.90
17813;DHT22;9030;50.792;8.320;2023-12-07T01:17:30;1.50;99.90
17813;DHT22;9030;50.792;8.320;2023-12-07T01:19:56;1.50;99.90
17813;DHT22;9030;50.792;8.320;2023-12-07T01:22:25;1.40;99.90
17813;DHT22;9030;50.792;8.320;2023-12-07T01:24:51;1.50;99.90
17813;DHT22;9030;50.792;8.320;2023-12-07T01:27:18;1.40;99.90
17813;DHT22;9030;50.792;8.320;2023-12-07T01:29:43;1.40;99.90
17813;DHT22;9030;50.792;8.320;2023-12-07T01:32:10;1.40;99.90
17813;DHT22;9030;50.792;8.320;2023-12-07T01:34:37;1.40;99.90
17813;DHT22;9030;50.792;8.320;2023-12-07T01:37:03;1.40;99.90
17813;DHT22;9030;50.792;8.320;2023-12-07T01:39:31;1.40;99.90
17813;DHT22;9030;50.792;8.320;2023-12-07T01:41:58;1.30;99.90
17813;DHT22;9030;50.792;8.320;2023-12-07T01:44:25;1.30;99.90
17813;DHT22;9030;50.792;8.320;2023-12-07T01:46:53;1.30;99.90
17813;DHT22;9030;50.792;8.320;2023-12-07T01:49:20;1.40;99.90
17813;DHT22;9030;50.792;8.320;2023-12-07T01:51:47;1.40;99.90
17813;DHT22;9030;50.792;8.320;2023-12-07T01:54:13;1.30;99.90
17813;DHT22;9030;50.792;8.320;2023-12-07T01:56:42;1.30;99.90
17813;DHT22;9030;50.792;8.320;2023-12-07T01:59:09;1.30;99.90
17813;DHT22;9030;50.792;8.320;2023-12-07T02:01:37;1.30;99.90
17813;DHT22;9030;50.792;8.320;2023-12-07T02:04:04;1.30;99.90
17813;DHT22;9030;50.792;8.320;2023-12-07T02:06:30;1.30;99.90
17813;DHT22;9030;50.792;8.320;2023-12-07T02:08:58;1.30;99.90
17813;DHT22;9030;50.792;8.320;2023-12-07T02:11:24;1.30;99.90
17813;DHT22;9030;50.792;8.320;2023-12-07T02:13:52;1.30;99.90
17813;DHT22;9030;50.792;8.320;2023-12-07T02:16:25;1.30;99.90
17813;DHT22;9030;50.792;8.320;2023-12-07T02:19:03;1.30;99.90
17813;DHT22;9030;50.792;8.320;2023-12-07T02:21:39;1.20;99.90
17813;DHT22;9030;50.792;8.320;2023-12-07T02:24:08;1.20;99.90
17813;DHT22;9030;50.792;8.320;2023-12-07T02:26:38;1.20;99.90
17813;DHT22;9030;50.792;8.320;2023-12-07T02:29:04;1.20;99.90
17813;DHT22;9030;50.792;8.320;2023-12-07T02:31:31;1.20;99.90
17813;DHT22;9030;50.792;8.320;2023-12-07T02:33:59;1.20;99.90
17813;DHT22;9030;50.792;8.320;2023-12-07T02:36:27;1.20;99.90
17813;DHT22;9030;50.792;8.320;2023-12-07T02:38:56;1.10;99.90
17813;DHT22;9030;50.792;8.320;2023-12-07T02:41:27;1.10;99.90
17813;DHT22;9030;50.792;8.320;2023-12-07T02:43:55;1.10;99.90
17813;DHT22;9030;50.792;8.320;2023-12-07T02:46:23;1.10;99.90
17813;DHT22;9030;50.792;8.320;2023-12-07T02:48:50;1.10;99.90
17813;DHT22;9030;50.792;8.320;2023-12-07T02:51:16;1.10;99.90
17813;DHT22;9030;50.792;8.320;2023-12-07T02:53:43;1.10;99.90
17813;DHT22;9030;50.792;8.320;2023-12-07T02:56:10;1.10;99.90
17813;DHT22;9030;50.792;8.320;2023-12-07T02:58:37;1.10;99.90
17813;DHT22;9030;50.792;8.320;2023-12-07T03:01:05;1.00;99.90
17813;DHT22;9030;50.792;8.320;2023-12-07T03:03:33;1.00;99.90
17813;DHT22;9030;50.792;8.320;2023-12-07T03:05:59;1.00;99.90
17813;DHT22;9030;50.792;8.320;2023-12-07T03:08:26;1.00;99.90
17813;DHT22;9030;50.792;8.320;2023-12-07T03:10:54;1.00;99.90
17813;DHT22;9030;50.792;8.320;2023-12-07T03:13:20;0.90;99.90
17813;DHT22;9030;50.792;8.320;2023-12-07T03:15:47;0.90;99.90
17813;DHT22;9030;50.792;8.320;2023-12-07T03:18:15;0.90;99.90
17813;DHT22;9030;50.792;8.320;2023-12-07T03:20:42;0.90;99.90
17813;DHT22;9030;50.792;8.320;2023-12-07T03:23:08;0.90;99.90
17813;DHT22;9030;50.792;8.320;2023-12-07T03:25:35;0.90;99.90
17813;DHT22;9030;50.792;8.320;2023-12-07T03:28:02;0.90;99.90
17813;DHT22;9030;50.792;8.320;2023-12-07T03:30:28;0.90;99.90
17813;DHT22;9030;50.792;8.320;2023-12-07T03:32:55;0.90;99.90
17813;DHT22;9030;50.792;8.320;2023-12-07T03:35:23;0.90;99.90
17813;DHT22;9030;50.792;8.320;2023-12-07T03:37:50;0.90;99.90
17813;DHT22;9030;50.792;8.320;2023-12-07T03:40:16;0.90;99.90
17813;DHT22;9030;50.792;8.320;2023-12-07T03:42:43;0.90;99.90
17813;DHT22;9030;50.792;8.320;2023-12-07T03:45:10;0.90;99.90
17813;DHT22;9030;50.792;8.320;2023-12-07T03:47:37;0.90;99.90
17813;DHT22;9030;50.792;8.320;2023-12-07T03:50:04;0.90;99.90
17813;DHT22;9030;50.792;8.320;2023-12-07T03:52:32;1.00;99.90
17813;DHT22;9030;50.792;8.320;2023-12-07T03:54:59;1.00;99.90
17813;DHT22;9030;50.792;8.320;2023-12-07T03:57:26;1.00;99.90
17813;DHT22;9030;50.792;8.320;2023-12-07T03:59:53;1.00;99.90
17813;DHT22;9030;50.792;8.320;2023-12-07T04:02:20;0.90;99.90
17813;DHT22;9030;50.792;8.320;2023-12-07T04:04:47;0.90;99.90
17813;DHT22;9030;50.792;8.320;2023-12-07T04:07:13;0.90;99.90
17813;DHT22;9030;50.792;8.320;2023-12-07T04:09:41;0.90;99.90
17813;DHT22;9030;50.792;8.320;2023-12-07T04:12:08;0.90;99.90
17813;DHT22;9030;50.792;8.320;2023-12-07T04:14:35;0.90;99.90
17813;DHT22;9030;50.792;8.320;2023-12-07T04:17:02;0.90;99.90
17813;DHT22;9030;50.792;8.320;2023-12-07T04:19:28;0.90;99.90
17813;DHT22;9030;50.792;8.320;2023-12-07T04:21:55;0.90;99.90
17813;DHT22;9030;50.792;8.320;2023-12-07T04:24:22;0.80;99.90
17813;DHT22;9030;50.792;8.320;2023-12-07T04:26:50;0.80;99.90
17813;DHT22;9030;50.792;8.320;2023-12-07T04:29:16;0.80;99.90
17813;DHT22;9030;50.792;8.320;2023-12-07T04:31:43;0.90;99.90
17813;DHT22;9030;50.792;8.320;2023-12-07T04:34:10;0.80;99.90
17813;DHT22;9030;50.792;8.320;2023-12-07T04:36:36;0.80;99.90
17813;DHT22;9030;50.792;8.320;2023-12-07T04:39:03;0.80;99.90
17813;DHT22;9030;50.792;8.320;2023-12-07T04:41:30;0.80;99.90
17813;DHT22;9030;50.792;8.320;2023-12-07T04:43:58;0.80;99.90
17813;DHT22;9030;50.792;8.320;2023-12-07T04:46:24;0.80;99.90
17813;DHT22;9030;50.792;8.320;2023-12-07T04:48:51;0.80;99.90
17813;DHT22;9030;50.792;8.320;2023-12-07T04:51:18;0.90;99.90
17813;DHT22;9030;50.792;8.320;2023-12-07T04:53:45;0.90;99.90
17813;DHT22;9030;50.792;8.320;2023-12-07T04:56:11;0.90;99.90
17813;DHT22;9030;50.792;8.320;2023-12-07T04:58:38;0.90;99.90
17813;DHT22;9030;50.792;8.320;2023-12-07T05:01:07;0.80;99.90
17813;DHT22;9030;50.792;8.320;2023-12-07T05:03:33;0.90;99.90
17813;DHT22;9030;50.792;8.320;2023-12-07T05:06:00;0.90;99.90
17813;DHT22;9030;50.792;8.320;2023-12-07T05:08:27;0.80;99.90
17813;DHT22;9030;50.792;8.320;2023-12-07T05:10:53;0.80;99.90
17813;DHT22;9030;50.792;8.320;2023-12-07T05:13:20;0.70;99.90
17813;DHT22;9030;50.792;8.320;2023-12-07T05:15:47;0.70;99.90
17813;DHT22;9030;50.792;8.320;2023-12-07T05:18:15;0.70;99.90
17813;DHT22;9030;50.792;8.320;2023-12-07T05:20:42;0.70;99.90
17813;DHT22;9030;50.792;8.320;2023-12-07T05:23:09;0.70;99.90
17813;DHT22;9030;50.792;8.320;2023-12-07T05:25:35;0.70;99.90
17813;DHT22;9030;50.792;8.320;2023-12-07T05:28:02;0.60;99.90
17813;DHT22;9030;50.792;8.320;2023-12-07T05:30:30;0.60;99.90
17813;DHT22;9030;50.792;8.320;2023-12-07T05:32:56;0.60;99.90
17813;DHT22;9030;50.792;8.320;2023-12-07T05:35:24;0.50;99.90
17813;DHT22;9030;50.792;8.320;2023-12-07T05:37:51;0.50;99.90
17813;DHT22;9030;50.792;8.320;2023-12-07T05:40:17;0.40;99.90
17813;DHT22;9030;50.792;8.320;2023-12-07T05:42:45;0.40;99.90
17813;DHT22;9030;50.792;8.320;2023-12-07T05:45:12;0.30;99.90
17813;DHT22;9030;50.792;8.320;2023-12-07T05:47:39;0.20;99.90
17813;DHT22;9030;50.792;8.320;2023-12-07T05:50:07;0.20;99.90
17813;DHT22;9030;50.792;8.320;2023-12-07T05:52:35;0.10;99.90
17813;DHT22;9030;50.792;8.320;2023-12-07T05:55:02;0.10;99.90
17813;DHT22;9030;50.792;8.320;2023-12-07T05:57:30;0.00;99.90
17813;DHT22;9030;50.792;8.320;2023-12-07T05:59:57;0.00;99.90
17813;DHT22;9030;50.792;8.320;2023-12-07T06:02:23;0.00;99.90
17813;DHT22;9030;50.792;8.320;2023-12-07T06:04:50;0.00;99.90
17813;DHT22;9030;50.792;8.320;2023-12-07T06:07:17;-0.10;99.90
17813;DHT22;9030;50.792;8.320;2023-12-07T06:09:45;0.00;99.90
17813;DHT22;9030;50.792;8.320;2023-12-07T06:12:12;-0.10;99.90
17813;DHT22;9030;50.792;8.320;2023-12-07T06:14:38;0.00;99.90
17813;DHT22;9030;50.792;8.320;2023-12-07T06:17:05;0.00;99.90
17813;DHT22;9030;50.792;8.320;2023-12-07T06:19:33;0.00;99.90
17813;DHT22;9030;50.792;8.320;2023-12-07T06:22:00;0.00;99.90
17813;DHT22;9030;50.792;8.320;2023-12-07T06:24:27;0.10;99.90
17813;DHT22;9030;50.792;8.320;2023-12-07T06:26:55;0.00;99.90
17813;DHT22;9030;50.792;8.320;2023-12-07T06:29:21;0.10;99.90
17813;DHT22;9030;50.792;8.320;2023-12-07T06:31:48;0.10;99.90
17813;DHT22;9030;50.792;8.320;2023-12-07T06:34:15;0.10;99.90
17813;DHT22;9030;50.792;8.320;2023-12-07T06:36:42;0.00;99.90
17813;DHT22;9030;50.792;8.320;2023-12-07T06:39:09;0.00;99.90
17813;DHT22;9030;50.792;8.320;2023-12-07T06:41:36;-0.10;99.90
17813;DHT22;9030;50.792;8.320;2023-12-07T06:44:04;-0.10;99.90
17813;DHT22;9030;50.792;8.320;2023-12-07T06:46:30;-0.10;99.90
17813;DHT22;9030;50.792;8.320;2023-12-07T06:48:57;-0.20;99.90
17813;DHT22;9030;50.792;8.320;2023-12-07T06:51:24;-0.20;99.90
17813;DHT22;9030;50.792;8.320;2023-12-07T06:53:51;-0.20;99.90
17813;DHT22;9030;50.792;8.320;2023-12-07T06:56:18;-0.20;99.90
17813;DHT22;9030;50.792;8.320;2023-12-07T06:58:45;-0.20;99.90
17813;DHT22;9030;50.792;8.320;2023-12-07T07:01:13;-0.20;99.90
17813;DHT22;9030;50.792;8.320;2023-12-07T07:03:40;-0.20;99.90
17813;DHT22;9030;50.792;8.320;2023-12-07T07:06:07;-0.10;99.90
17813;DHT22;9030;50.792;8.320;2023-12-07T07:08:34;-0.10;99.90
17813;DHT22;9030;50.792;8.320;2023-12-07T07:11:00;-0.10;99.90
17813;DHT22;9030;50.792;8.320;2023-12-07T07:13:29;-0.10;99.90
17813;DHT22;9030;50.792;8.320;2023-12-07T07:15:55;0.00;99.90
17813;DHT22;9030;50.792;8.320;2023-12-07T07:18:23;0.00;99.90
17813;DHT22;9030;50.792;8.320;2023-12-07T07:20:50;0.00;99.90
17813;DHT22;9030;50.792;8.320;2023-12-07T07:23:17;0.00;99.90
17813;DHT22;9030;50.792;8.320;2023-12-07T07:25:44;-0.10;99.90
17813;DHT22;9030;50.792;8.320;2023-12-07T07:28:10;-0.10;99.90
17813;DHT22;9030;50.792;8.320;2023-12-07T07:30:37;-0.10;99.90
17813;DHT22;9030;50.792;8.320;2023-12-07T07:33:03;-0.10;99.90
17813;DHT22;9030;50.792;8.320;2023-12-07T07:35:31;-0.10;99.90
17813;DHT22;9030;50.792;8.320;2023-12-07T07:37:58;-0.10;99.90
17813;DHT22;9030;50.792;8.320;2023-12-07T07:40:25;-0.10;99.90
17813;DHT22;9030;50.792;8.320;2023-12-07T07:42:52;-0.10;99.90
17813;DHT22;9030;50.792;8.320;2023-12-07T07:45:18;-0.10;99.90
17813;DHT22;9030;50.792;8.320;2023-12-07T07:47:45;-0.10;99.90
17813;DHT22;9030;50.792;8.320;2023-12-07T07:50:11;-0.10;99.90
17813;DHT22;9030;50.792;8.320;2023-12-07T07:52:39;-0.10;99.90
17813;DHT22;9030;50.792;8.320;2023-12-07T07:55:07;0.00;99.90
17813;DHT22;9030;50.792;8.320;2023-12-07T07:57:34;0.00;99.90
17813;DHT22;9030;50.792;8.320;2023-12-07T08:00:00;0.10;99.90
17813;DHT22;9030;50.792;8.320;2023-12-07T08:02:27;0.10;99.90
17813;DHT22;9030;50.792;8.320;2023-12-07T08:04:53;0.10;99.90
17813;DHT22;9030;50.792;8.320;2023-12-07T08:07:20;0.10;99.90
17813;DHT22;9030;50.792;8.320;2023-12-07T08:09:48;0.10;99.90
17813;DHT22;9030;50.792;8.320;2023-12-07T08:12:15;0.10;99.90
17813;DHT22;9030;50.792;8.320;2023-12-07T08:14:42;0.10;99.90
17813;DHT22;9030;50.792;8.320;2023-12-07T08:17:10;0.20;99.90
17813;DHT22;9030;50.792;8.320;2023-12-07T08:19:37;0.10;99.90
17813;DHT22;9030;50.792;8.320;2023-12-07T08:22:04;0.10;99.90
17813;DHT22;9030;50.792;8.320;2023-12-07T08:24:31;0.10;99.90
17813;DHT22;9030;50.792;8.320;2023-12-07T08:26:59;0.10;99.90
17813;DHT22;9030;50.792;8.320;2023-12-07T08:29:25;0.20;99.90
17813;DHT22;9030;50.792;8.320;2023-12-07T08:31:52;0.20;99.90
17813;DHT22;9030;50.792;8.320;2023-12-07T08:34:19;0.30;99.90
17813;DHT22;9030;50.792;8.320;2023-12-07T08:36:45;0.30;99.90
17813;DHT22;9030;50.792;8.320;2023-12-07T08:39:12;0.30;99.90
17813;DHT22;9030;50.792;8.320;2023-12-07T08:41:39;0.30;99.90
17813;DHT22;9030;50.792;8.320;2023-12-07T08:44:06;0.40;99.90
17813;DHT22;9030;50.792;8.320;2023-12-07T08:46:33;0.40;99.90
17813;DHT22;9030;50.792;8.320;2023-12-07T08:49:00;0.30;99.90
17813;DHT22;9030;50.792;8.320;2023-12-07T08:51:28;0.30;99.90
17813;DHT22;9030;50.792;8.320;2023-12-07T08:54:15;0.30;99.90
17813;DHT22;9030;50.792;8.320;2023-12-07T08:57:01;0.30;99.90
17813;DHT22;9030;50.792;8.320;2023-12-07T08:59:29;0.40;99.90
17813;DHT22;9030;50.792;8.320;2023-12-07T09:01:56;0.50;99.90
17813;DHT22;9030;50.792;8.320;2023-12-07T09:04:23;0.40;99.90
17813;DHT22;9030;50.792;8.320;2023-12-07T09:06:49;0.50;99.90
17813;DHT22;9030;50.792;8.320;2023-12-07T09:09:16;0.40;99.90
17813;DHT22;9030;50.792;8.320;2023-12-07T09:11:43;0.40;99.90
17813;DHT22;9030;50.792;8.320;2023-12-07T09:14:09;0.40;99.90
17813;DHT22;9030;50.792;8.320;2023-12-07T09:16:43;0.40;99.90
17813;DHT22;9030;50.792;8.320;2023-12-07T09:19:11;0.40;99.90
17813;DHT22;9030;50.792;8.320;2023-12-07T09:21:37;0.40;99.90
17813;DHT22;9030;50.792;8.320;2023-12-07T09:24:05;0.30;99.90
17813;DHT22;9030;50.792;8.320;2023-12-07T09:26:32;0.40;99.90
17813;DHT22;9030;50.792;8.320;2023-12-07T09:28:58;0.40;99.90
17813;DHT22;9030;50.792;8.320;2023-12-07T09:31:25;0.30;99.90
17813;DHT22;9030;50.792;8.320;2023-12-07T09:33:54;0.40;99.90
17813;DHT22;9030;50.792;8.320;2023-12-07T09:36:21;0.40;99.90
17813;DHT22;9030;50.792;8.320;2023-12-07T09:38:49;0.40;99.90
17813;DHT22;9030;50.792;8.320;2023-12-07T09:41:15;0.40;99.90
17813;DHT22;9030;50.792;8.320;2023-12-07T09:43:42;0.50;99.90
17813;DHT22;9030;50.792;8.320;2023-12-07T09:46:09;0.50;99.90
17813;DHT22;9030;50.792;8.320;2023-12-07T09:48:37;0.60;99.90
17813;DHT22;9030;50.792;8.320;2023-12-07T09:51:08;0.60;99.90
17813;DHT22;9030;50.792;8.320;2023-12-07T09:53:38;0.50;99.90
17813;DHT22;9030;50.792;8.320;2023-12-07T09:56:06;0.60;99.90
17813;DHT22;9030;50.792;8.320;2023-12-07T09:58:33;0.50;99.90
17813;DHT22;9030;50.792;8.320;2023-12-07T10:01:00;0.60;99.90
17813;DHT22;9030;50.792;8.320;2023-12-07T10:03:27;0.80;99.90
17813;DHT22;9030;50.792;8.320;2023-12-07T10:05:54;0.80;99.90
17813;DHT22;9030;50.792;8.320;2023-12-07T10:08:27;0.80;99.90
17813;DHT22;9030;50.792;8.320;2023-12-07T10:11:02;0.80;99.90
17813;DHT22;9030;50.792;8.320;2023-12-07T10:13:30;0.80;99.90
17813;DHT22;9030;50.792;8.320;2023-12-07T10:16:06;0.60;99.90
17813;DHT22;9030;50.792;8.320;2023-12-07T10:18:33;0.60;99.90
17813;DHT22;9030;50.792;8.320;2023-12-07T10:21:00;0.60;99.90
17813;DHT22;9030;50.792;8.320;2023-12-07T10:23:28;0.50;99.90
17813;DHT22;9030;50.792;8.320;2023-12-07T10:25:58;0.30;99.90
17813;DHT22;9030;50.792;8.320;2023-12-07T10:28:25;0.40;99.90
17813;DHT22;9030;50.792;8.320;2023-12-07T10:30:52;0.30;99.90
17813;DHT22;9030;50.792;8.320;2023-12-07T10:33:19;0.30;99.90
17813;DHT22;9030;50.792;8.320;2023-12-07T10:35:47;0.30;99.90
17813;DHT22;9030;50.792;8.320;2023-12-07T10:38:13;0.20;99.90
17813;DHT22;9030;50.792;8.320;2023-12-07T10:40:41;0.30;99.90
17813;DHT22;9030;50.792;8.320;2023-12-07T10:43:08;0.30;99.90
17813;DHT22;9030;50.792;8.320;2023-12-07T10:45:36;0.30;99.90
17813;DHT22;9030;50.792;8.320;2023-12-07T10:48:05;0.20;99.90
17813;DHT22;9030;50.792;8.320;2023-12-07T10:50:35;0.30;99.90
17813;DHT22;9030;50.792;8.320;2023-12-07T10:53:09;0.30;99.90
17813;DHT22;9030;50.792;8.320;2023-12-07T10:55:42;0.40;99.90
17813;DHT22;9030;50.792;8.320;2023-12-07T10:58:13;0.40;99.90
17813;DHT22;9030;50.792;8.320;2023-12-07T11:00:42;0.50;99.90
17813;DHT22;9030;50.792;8.320;2023-12-07T11:03:14;0.50;99.90
17813;DHT22;9030;50.792;8.320;2023-12-07T11:05:42;0.60;99.90
17813;DHT22;9030;50.792;8.320;2023-12-07T11:08:11;0.60;99.90
17813;DHT22;9030;50.792;8.320;2023-12-07T11:10:47;0.70;99.90
17813;DHT22;9030;50.792;8.320;2023-12-07T11:13:20;0.80;99.90
17813;DHT22;9030;50.792;8.320;2023-12-07T11:15:49;0.80;99.90
17813;DHT22;9030;50.792;8.320;2023-12-07T11:18:15;0.90;99.90
17813;DHT22;9030;50.792;8.320;2023-12-07T11:20:44;0.80;99.90
17813;DHT22;9030;50.792;8.320;2023-12-07T11:23:11;0.80;99.90
17813;DHT22;9030;50.792;8.320;2023-12-07T11:25:38;0.80;99.90
17813;DHT22;9030;50.792;8.320;2023-12-07T11:28:07;0.80;99.90
17813;DHT22;9030;50.792;8.320;2023-12-07T11:30:35;0.90;99.90
17813;DHT22;9030;50.792;8.320;2023-12-07T11:33:03;0.90;99.90
17813;DHT22;9030;50.792;8.320;2023-12-07T11:35:30;1.00;99.90
17813;DHT22;9030;50.792;8.320;2023-12-07T11:38:01;1.00;99.90
17813;DHT22;9030;50.792;8.320;2023-12-07T11:40:30;1.00;99.90
17813;DHT22;9030;50.792;8.320;2023-12-07T11:42:58;1.00;99.90
17813;DHT22;9030;50.792;8.320;2023-12-07T11:45:39;1.00;99.90
17813;DHT22;9030;50.792;8.320;2023-12-07T11:48:10;1.00;99.90
17813;DHT22;9030;50.792;8.320;2023-12-07T11:50:56;0.90;99.90
17813;DHT22;9030;50.792;8.320;2023-12-07T11:53:23;1.00;99.90
17813;DHT22;9030;50.792;8.320;2023-12-07T11:55:50;1.10;99.90
17813;DHT22;9030;50.792;8.320;2023-12-07T11:58:17;1.10;99.90
17813;DHT22;9030;50.792;8.320;2023-12-07T12:00:45;1.20;99.90
17813;DHT22;9030;50.792;8.320;2023-12-07T12:03:12;1.20;99.90
17813;DHT22;9030;50.792;8.320;2023-12-07T12:05:39;1.20;99.90
17813;DHT22;9030;50.792;8.320;2023-12-07T12:08:06;1.30;99.90
17813;DHT22;9030;50.792;8.320;2023-12-07T12:10:32;1.40;99.90
17813;DHT22;9030;50.792;8.320;2023-12-07T12:13:01;1.40;99.90
17813;DHT22;9030;50.792;8.320;2023-12-07T12:15:28;1.50;99.90
17813;DHT22;9030;50.792;8.320;2023-12-07T12:17:57;1.50;99.90
17813;DHT22;9030;50.792;8.320;2023-12-07T12:20:24;1.60;99.90
17813;DHT22;9030;50.792;8.320;2023-12-07T12:22:51;1.70;99.90
17813;DHT22;9030;50.792;8.320;2023-12-07T12:25:19;1.70;99.90
17813;DHT22;9030;50.792;8.320;2023-12-07T12:27:48;1.80;99.90
17813;DHT22;9030;50.792;8.320;2023-12-07T12:30:15;1.80;99.90
17813;DHT22;9030;50.792;8.320;2023-12-07T12:32:43;1.90;99.90
17813;DHT22;9030;50.792;8.320;2023-12-07T12:35:11;1.80;99.90
17813;DHT22;9030;50.792;8.320;2023-12-07T12:37:40;1.70;99.90
17813;DHT22;9030;50.792;8.320;2023-12-07T12:40:08;1.70;99.90
17813;DHT22;9030;50.792;8.320;2023-12-07T12:42:35;1.80;99.90
17813;DHT22;9030;50.792;8.320;2023-12-07T12:45:03;1.70;99.90
17813;DHT22;9030;50.792;8.320;2023-12-07T12:47:30;1.70;99.90
17813;DHT22;9030;50.792;8.320;2023-12-07T12:49:57;1.70;99.90
17813;DHT22;9030;50.792;8.320;2023-12-07T12:52:28;1.80;99.90
17813;DHT22;9030;50.792;8.320;2023-12-07T12:54:55;1.70;99.90
17813;DHT22;9030;50.792;8.320;2023-12-07T12:57:22;1.80;99.90
17813;DHT22;9030;50.792;8.320;2023-12-07T12:59:51;1.90;99.90
17813;DHT22;9030;50.792;8.320;2023-12-07T13:02:19;1.90;99.90
17813;DHT22;9030;50.792;8.320;2023-12-07T13:04:45;1.90;99.90
17813;DHT22;9030;50.792;8.320;2023-12-07T13:07:13;1.90;99.90
17813;DHT22;9030;50.792;8.320;2023-12-07T13:09:40;2.00;99.90
17813;DHT22;9030;50.792;8.320;2023-12-07T13:12:09;2.00;99.90
17813;DHT22;9030;50.792;8.320;2023-12-07T13:14:36;2.00;99.90
17813;DHT22;9030;50.792;8.320;2023-12-07T13:17:05;2.00;99.90
17813;DHT22;9030;50.792;8.320;2023-12-07T13:19:33;1.70;99.90
17813;DHT22;9030;50.792;8.320;2023-12-07T13:21:59;1.70;99.90
17813;DHT22;9030;50.792;8.320;2023-12-07T13:24:26;1.60;99.90
17813;DHT22;9030;50.792;8.320;2023-12-07T13:26:54;1.70;99.90
17813;DHT22;9030;50.792;8.320;2023-12-07T13:29:21;1.70;99.90
17813;DHT22;9030;50.792;8.320;2023-12-07T13:31:48;1.70;99.90
17813;DHT22;9030;50.792;8.320;2023-12-07T13:34:15;1.70;99.90
17813;DHT22;9030;50.792;8.320;2023-12-07T13:36:42;1.70;99.90
17813;DHT22;9030;50.792;8.320;2023-12-07T13:39:08;1.70;99.90
17813;DHT22;9030;50.792;8.320;2023-12-07T13:41:37;1.70;99.90
17813;DHT22;9030;50.792;8.320;2023-12-07T13:44:05;1.70;99.90
17813;DHT22;9030;50.792;8.320;2023-12-07T13:46:32;1.60;99.90
17813;DHT22;9030;50.792;8.320;2023-12-07T13:48:59;1.60;99.90
17813;DHT22;9030;50.792;8.320;2023-12-07T13:51:26;1.60;99.90
17813;DHT22;9030;50.792;8.320;2023-12-07T13:53:52;1.50;99.90
17813;DHT22;9030;50.792;8.320;2023-12-07T13:56:21;1.50;99.90
17813;DHT22;9030;50.792;8.320;2023-12-07T13:58:48;1.50;99.90
17813;DHT22;9030;50.792;8.320;2023-12-07T14:01:16;1.40;99.90
17813;DHT22;9030;50.792;8.320;2023-12-07T14:03:43;1.40;99.90
17813;DHT22;9030;50.792;8.320;2023-12-07T14:06:10;1.40;99.90
17813;DHT22;9030;50.792;8.320;2023-12-07T14:08:37;1.30;99.90
17813;DHT22;9030;50.792;8.320;2023-12-07T14:11:04;1.20;99.90
17813;DHT22;9030;50.792;8.320;2023-12-07T14:13:31;1.20;99.90
17813;DHT22;9030;50.792;8.320;2023-12-07T14:15:57;1.10;99.90
17813;DHT22;9030;50.792;8.320;2023-12-07T14:18:25;1.00;99.90
17813;DHT22;9030;50.792;8.320;2023-12-07T14:20:52;0.90;99.90
17813;DHT22;9030;50.792;8.320;2023-12-07T14:23:19;1.00;99.90
17813;DHT22;9030;50.792;8.320;2023-12-07T14:25:46;0.90;99.90
17813;DHT22;9030;50.792;8.320;2023-12-07T14:28:14;1.00;99.90
17813;DHT22;9030;50.792;8.320;2023-12-07T14:30:42;1.00;99.90
17813;DHT22;9030;50.792;8.320;2023-12-07T14:33:09;1.00;99.90
17813;DHT22;9030;50.792;8.320;2023-12-07T14:35:37;1.00;99.90
17813;DHT22;9030;50.792;8.320;2023-12-07T14:38:03;0.90;99.90
17813;DHT22;9030;50.792;8.320;2023-12-07T14:40:30;0.90;99.90
17813;DHT22;9030;50.792;8.320;2023-12-07T14:42:56;0.80;99.90
17813;DHT22;9030;50.792;8.320;2023-12-07T14:45:23;0.80;99.90
17813;DHT22;9030;50.792;8.320;2023-12-07T14:47:51;0.70;99.90
17813;DHT22;9030;50.792;8.320;2023-12-07T14:50:18;0.60;99.90
17813;DHT22;9030;50.792;8.320;2023-12-07T14:52:46;0.60;99.90
17813;DHT22;9030;50.792;8.320;2023-12-07T14:55:12;0.50;99.90
17813;DHT22;9030;50.792;8.320;2023-12-07T14:57:39;0.50;99.90
17813;DHT22;9030;50.792;8.320;2023-12-07T15:00:06;0.50;99.90
17813;DHT22;9030;50.792;8.320;2023-12-07T15:02:34;0.40;99.90
17813;DHT22;9030;50.792;8.320;2023-12-07T15:05:00;0.40;99.90
17813;DHT22;9030;50.792;8.320;2023-12-07T15:07:27;0.40;99.90
17813;DHT22;9030;50.792;8.320;2023-12-07T15:09:55;0.50;99.90
17813;DHT22;9030;50.792;8.320;2023-12-07T15:12:23;0.50;99.90
17813;DHT22;9030;50.792;8.320;2023-12-07T15:14:50;0.40;99.90
17813;DHT22;9030;50.792;8.320;2023-12-07T15:17:17;0.30;99.90
17813;DHT22;9030;50.792;8.320;2023-12-07T15:19:44;0.30;99.90
17813;DHT22;9030;50.792;8.320;2023-12-07T15:22:11;0.40;99.90
17813;DHT22;9030;50.792;8.320;2023-12-07T15:24:37;0.40;99.90
17813;DHT22;9030;50.792;8.320;2023-12-07T15:27:05;0.40;99.90
17813;DHT22;9030;50.792;8.320;2023-12-07T15:29:33;0.50;99.90
17813;DHT22;9030;50.792;8.320;2023-12-07T15:32:00;0.50;99.90
17813;DHT22;9030;50.792;8.320;2023-12-07T15:34:27;0.50;99.90
17813;DHT22;9030;50.792;8.320;2023-12-07T15:36:54;0.50;99.90
17813;DHT22;9030;50.792;8.320;2023-12-07T15:39:21;0.50;99.90
17813;DHT22;9030;50.792;8.320;2023-12-07T15:41:47;0.50;99.90
17813;DHT22;9030;50.792;8.320;2023-12-07T15:44:15;0.50;99.90
17813;DHT22;9030;50.792;8.320;2023-12-07T15:46:42;0.60;99.90
17813;DHT22;9030;50.792;8.320;2023-12-07T15:49:09;0.50;99.90
17813;DHT22;9030;50.792;8.320;2023-12-07T15:51:35;0.60;99.90
17813;DHT22;9030;50.792;8.320;2023-12-07T15:54:02;0.50;99.90
17813;DHT22;9030;50.792;8.320;2023-12-07T15:56:29;0.50;99.90
17813;DHT22;9030;50.792;8.320;2023-12-07T15:58:55;0.60;99.90
17813;DHT22;9030;50.792;8.320;2023-12-07T16:01:23;0.50;99.90